createdAt,value
2023-03-11T00:02:08.103Z,4.69
2023-03-11T00:07:11.865Z,4.72
2023-03-11T00:12:14.345Z,5.07
2023-03-11T00:17:16.828Z,4.93
2023-03-11T00:22:19.078Z,4.86
2023-03-11T00:27:21.250Z,4.47
2023-03-11T00:32:23.739Z,4.44
2023-03-11T00:37:26.006Z,4.52
2023-03-11T00:42:28.241Z,4.62
2023-03-11T00:47:30.417Z,4.43
2023-03-11T00:52:32.670Z,4.28
2023-03-11T00:57:34.762Z,4.92
2023-03-11T01:02:38.727Z,4.38
2023-03-11T01:07:41.186Z,4.54
2023-03-11T01:12:44.648Z,5.18
2023-03-11T01:17:47.177Z,5.54
2023-03-11T01:22:50.150Z,5.33
2023-03-11T01:27:52.202Z,4.89
2023-03-11T01:32:56.563Z,5.07
2023-03-11T01:37:59.832Z,5.20
2023-03-11T01:43:04.821Z,5.26
2023-03-11T01:48:10.456Z,5.51
2023-03-11T01:53:16.168Z,5.27
2023-03-11T01:58:31.020Z,5.25
2023-03-11T02:03:39.050Z,4.95
2023-03-11T02:08:43.591Z,4.67
2023-03-11T02:13:49.382Z,4.98
2023-03-11T02:18:52.778Z,4.93
2023-03-11T02:24:36.124Z,4.38
2023-03-11T02:29:39.270Z,4.52
2023-03-11T02:34:42.159Z,4.24
2023-03-11T02:39:50.025Z,4.23
2023-03-11T02:45:05.581Z,4.01
2023-03-11T02:50:13.896Z,3.62
2023-03-11T02:55:18.137Z,3.00
2023-03-11T03:00:20.580Z,2.66
2023-03-11T03:05:32.280Z,2.66
2023-03-11T03:10:36.294Z,2.45
2023-03-11T03:15:38.817Z,2.44
2023-03-11T03:20:41.729Z,2.25
2023-03-11T03:25:45.959Z,2.31
2023-03-11T03:30:48.829Z,2.15
2023-03-11T03:35:51.145Z,2.36
2023-03-11T03:41:03.741Z,2.00
2023-03-11T03:46:06.475Z,2.15
2023-03-11T03:51:15.619Z,2.05
2023-03-11T03:56:30.722Z,2.18
2023-03-11T04:01:33.212Z,1.98
2023-03-11T04:06:35.640Z,2.11
2023-03-11T04:11:40.411Z,1.91
2023-03-11T04:16:44.043Z,1.75
2023-03-11T04:21:51.993Z,1.82
2023-03-11T04:26:55.902Z,1.78
2023-03-11T04:31:58.121Z,1.59
2023-03-11T04:37:00.166Z,1.55
2023-03-11T04:42:07.785Z,1.46
2023-03-11T04:47:11.451Z,1.51
2023-03-11T04:52:14.404Z,1.31
2023-03-11T04:57:17.179Z,1.37
2023-03-11T05:02:20.456Z,1.47
2023-03-11T05:07:33.943Z,1.40
2023-03-11T05:12:36.450Z,1.28
2023-03-11T05:17:38.719Z,1.32
2023-03-11T05:22:41.539Z,1.41
2023-03-11T05:27:44.868Z,1.43
2023-03-11T05:32:50.017Z,1.43
2023-03-11T05:37:54.901Z,1.36
2023-03-11T05:42:59.029Z,1.32
2023-03-11T05:48:03.976Z,1.31
2023-03-11T05:53:06.968Z,1.35
2023-03-11T05:58:09.604Z,1.29
2023-03-11T06:03:12.320Z,1.22
2023-03-11T06:08:16.329Z,1.21
2023-03-11T06:13:18.667Z,1.21
2023-03-11T06:18:27.545Z,1.30
2023-03-11T06:23:31.037Z,1.26
2023-03-11T06:28:34.042Z,1.28
2023-03-11T06:33:36.395Z,1.35
2023-03-11T06:38:38.691Z,1.44
2023-03-11T06:43:41.151Z,1.59
2023-03-11T06:48:44.369Z,1.68
2023-03-11T06:53:53.507Z,1.72
2023-03-11T06:58:57.017Z,1.78
2023-03-11T07:04:02.421Z,1.91
2023-03-11T07:09:05.428Z,1.89
2023-03-11T07:14:10.163Z,3.27
2023-03-11T07:19:19.011Z,3.87
2023-03-11T07:24:21.885Z,3.58
2023-03-11T07:29:23.876Z,4.08
2023-03-11T07:34:26.155Z,4.43
2023-03-11T07:39:28.296Z,5.39
2023-03-11T07:44:30.470Z,7.06
2023-03-11T07:49:33.455Z,8.17
2023-03-11T07:54:35.495Z,7.91
2023-03-11T07:59:37.476Z,7.88
2023-03-11T08:04:39.750Z,6.88
2023-03-11T08:09:42.157Z,6.56
2023-03-11T08:14:44.747Z,6.81
2023-03-11T08:19:49.436Z,5.56
2023-03-11T08:24:53.045Z,5.02
2023-03-11T08:29:55.326Z,5.21
2023-03-11T08:34:58.478Z,5.61
2023-03-11T08:40:03.908Z,7.48
2023-03-11T08:45:07.381Z,9.06
2023-03-11T08:50:15.911Z,12.20
2023-03-11T08:55:25.157Z,13.75
2023-03-11T09:00:27.590Z,15.64
2023-03-11T09:05:30.067Z,14.70
2023-03-11T09:10:32.603Z,13.63
2023-03-11T09:15:36.510Z,12.53
2023-03-11T09:20:39.807Z,10.59
2023-03-11T09:25:42.566Z,8.69
2023-03-11T09:30:45.313Z,10.28
2023-03-11T09:35:47.936Z,10.61
2023-03-11T09:41:01.903Z,10.31
2023-03-11T09:46:33.539Z,9.87
2023-03-11T09:51:41.065Z,9.47
2023-03-11T09:56:44.624Z,9.83
2023-03-11T10:01:50.679Z,12.17
2023-03-11T10:06:54.600Z,12.59
2023-03-11T10:12:27.877Z,10.98
2023-03-11T10:17:58.817Z,10.94
2023-03-11T10:23:10.174Z,10.30
2023-03-11T10:28:18.867Z,10.00
2023-03-11T10:33:51.676Z,9.92
2023-03-11T10:38:56.387Z,8.10
2023-03-11T10:44:23.963Z,8.10
2023-03-11T10:49:26.674Z,11.99
2023-03-11T10:54:39.746Z,10.83
2023-03-11T10:59:56.749Z,9.80
2023-03-11T11:05:05.882Z,8.14
2023-03-11T11:10:26.204Z,7.36
2023-03-11T11:15:36.152Z,9.25
2023-03-11T11:20:40.197Z,12.37
2023-03-11T11:25:44.311Z,14.44
2023-03-11T11:30:56.177Z,14.93
2023-03-11T11:36:05.712Z,11.24
2023-03-11T11:41:16.825Z,10.54
2023-03-11T11:46:57.524Z,10.30
2023-03-11T11:52:19.552Z,10.25
2023-03-11T11:57:24.277Z,12.11
2023-03-11T12:02:50.004Z,12.63
2023-03-11T12:08:05.463Z,11.73
2023-03-11T12:13:50.709Z,9.91
2023-03-11T12:18:58.966Z,9.47
2023-03-11T12:24:37.855Z,9.57
2023-03-11T12:29:46.275Z,9.46
2023-03-11T12:34:49.099Z,9.38
2023-03-11T12:39:51.512Z,9.93
2023-03-11T12:44:53.988Z,10.21
2023-03-11T12:50:16.307Z,10.49
2023-03-11T12:55:30.595Z,10.55
2023-03-11T13:00:57.012Z,10.17
2023-03-11T13:06:06.956Z,12.15
2023-03-11T13:11:34.182Z,12.93
2023-03-11T13:16:38.695Z,11.30
2023-03-11T13:21:41.939Z,10.73
2023-03-11T13:26:58.862Z,10.83
2023-03-11T13:32:17.977Z,10.61
2023-03-11T13:37:50.589Z,12.38
2023-03-11T13:43:02.403Z,16.06
2023-03-11T13:48:18.571Z,18.37
2023-03-11T13:53:36.354Z,20.28
2023-03-11T13:58:38.365Z,21.92
2023-03-11T14:03:45.914Z,22.75
2023-03-11T14:08:57.221Z,23.29
2023-03-11T14:13:59.721Z,22.57
2023-03-11T14:19:15.797Z,21.39
2023-03-11T14:24:29.374Z,20.22
2023-03-11T14:29:43.524Z,18.99
2023-03-11T14:34:46.198Z,16.97
2023-03-11T14:39:51.138Z,14.94
2023-03-11T14:45:05.304Z,13.62
2023-03-11T14:50:15.900Z,13.16
2023-03-11T14:55:25.179Z,12.81
2023-03-11T15:00:39.031Z,12.34
2023-03-11T15:06:15.815Z,12.41
2023-03-11T15:11:19.637Z,12.19
2023-03-11T15:16:37.514Z,11.91
2023-03-11T15:21:48.068Z,11.63
2023-03-11T15:27:01.740Z,11.67
2023-03-11T15:32:33.451Z,11.72
2023-03-11T15:37:35.529Z,11.52
2023-03-11T15:42:38.141Z,11.36
2023-03-11T15:47:40.930Z,11.14
2023-03-11T15:52:43.152Z,11.02
2023-03-11T15:57:49.138Z,10.82
2023-03-11T16:02:52.150Z,10.66
2023-03-11T16:07:54.274Z,10.30
2023-03-11T16:12:56.432Z,10.32
2023-03-11T16:18:01.349Z,10.12
2023-03-11T16:23:04.896Z,10.06
2023-03-11T16:28:07.849Z,10.01
2023-03-11T16:33:10.312Z,9.98
2023-03-11T16:38:12.848Z,9.72
2023-03-11T16:43:15.644Z,9.74
2023-03-11T16:48:18.311Z,9.69
2023-03-11T16:53:20.791Z,9.69
2023-03-11T16:58:23.313Z,9.64
2023-03-11T17:03:27.533Z,9.61
2023-03-11T17:08:32.133Z,9.57
2023-03-11T17:13:34.806Z,9.44
2023-03-11T17:18:37.528Z,9.32
2023-03-11T17:23:40.166Z,9.32
2023-03-11T17:28:43.527Z,9.30
2023-03-11T17:33:46.330Z,9.21
2023-03-11T17:38:52.063Z,9.17
2023-03-11T17:43:54.546Z,9.07
2023-03-11T17:48:56.991Z,8.91
2023-03-11T17:54:00.291Z,8.72
2023-03-11T17:59:02.800Z,8.66
2023-03-11T18:04:05.631Z,8.63
2023-03-11T18:09:08.228Z,8.53
2023-03-11T18:14:12.420Z,8.53
2023-03-11T18:19:16.533Z,8.40
2023-03-11T18:24:19.158Z,8.20
2023-03-11T18:29:21.557Z,8.19
2023-03-11T18:34:24.090Z,8.29
2023-03-11T18:39:26.582Z,8.33
2023-03-11T18:44:28.984Z,7.91
2023-03-11T18:49:31.087Z,7.74
2023-03-11T18:54:36.067Z,7.20
2023-03-11T18:59:38.132Z,6.98
2023-03-11T19:04:40.220Z,6.98
2023-03-11T19:09:42.357Z,7.06
2023-03-11T19:14:44.348Z,7.18
2023-03-11T19:19:46.820Z,7.12
2023-03-11T19:24:48.986Z,6.85
2023-03-11T19:29:51.256Z,6.74
2023-03-11T19:34:53.277Z,6.08
2023-03-11T19:39:55.427Z,5.69
2023-03-11T19:44:57.522Z,5.67
2023-03-11T19:49:59.730Z,6.16
2023-03-11T19:55:02.066Z,6.50
2023-03-11T20:00:05.703Z,6.83
2023-03-11T20:05:08.735Z,6.84
2023-03-11T20:10:11.540Z,6.37
2023-03-11T20:15:13.739Z,6.80
2023-03-11T20:20:16.361Z,6.97
2023-03-11T20:25:18.681Z,6.82
2023-03-11T20:30:21.977Z,6.86
2023-03-11T20:35:24.184Z,6.60
2023-03-11T20:40:26.318Z,6.14
2023-03-11T20:45:28.429Z,6.36
2023-03-11T20:50:30.532Z,6.56
2023-03-11T20:55:32.735Z,6.01
2023-03-11T21:00:35.434Z,5.47
2023-03-11T21:05:38.434Z,5.49
2023-03-11T21:10:40.636Z,5.78
2023-03-11T21:15:42.855Z,5.51
2023-03-11T21:20:45.155Z,5.22
2023-03-11T21:25:47.749Z,5.95
2023-03-11T21:31:10.847Z,6.31
2023-03-11T21:36:15.982Z,6.06
2023-03-11T21:41:26.266Z,6.30
2023-03-11T21:46:32.234Z,5.81
2023-03-11T21:51:34.415Z,5.36
2023-03-11T21:56:36.672Z,5.18
2023-03-11T22:01:39.289Z,5.24
2023-03-11T22:06:41.446Z,5.20
2023-03-11T22:11:43.813Z,5.18
2023-03-11T22:16:46.461Z,4.89
2023-03-11T22:21:49.124Z,5.02
2023-03-11T22:26:51.384Z,4.63
2023-03-11T22:31:53.521Z,4.75
2023-03-11T22:36:55.581Z,5.07
2023-03-11T22:41:57.647Z,5.30
2023-03-11T22:46:59.680Z,5.81
2023-03-11T22:52:01.822Z,5.45
2023-03-11T22:57:03.859Z,4.93
2023-03-11T23:02:05.921Z,4.83
2023-03-11T23:07:07.980Z,4.79
2023-03-11T23:12:10.245Z,4.78
2023-03-11T23:17:12.675Z,4.90
2023-03-11T23:22:14.893Z,4.54
2023-03-11T23:27:17.689Z,4.79
2023-03-11T23:32:19.852Z,4.43
2023-03-11T23:37:21.952Z,4.40
2023-03-11T23:42:26.182Z,4.25
2023-03-11T23:47:28.738Z,4.28
2023-03-11T23:52:30.707Z,4.12
2023-03-11T23:57:37.979Z,4.26
